createdAt,value
2023-01-18T00:00:52.615Z,100.00
2023-01-18T00:03:20.952Z,100.00
2023-01-18T00:05:52.308Z,100.00
2023-01-18T00:08:23.859Z,100.00
2023-01-18T00:10:52.350Z,100.00
2023-01-18T00:13:23.437Z,100.00
2023-01-18T00:15:52.132Z,100.00
2023-01-18T00:18:20.494Z,100.00
2023-01-18T00:20:49.065Z,100.00
2023-01-18T00:23:17.429Z,100.00
2023-01-18T00:25:49.991Z,100.00
2023-01-18T00:28:23.415Z,100.00
2023-01-18T00:30:51.615Z,100.00
2023-01-18T00:33:20.020Z,100.00
2023-01-18T00:35:56.967Z,100.00
2023-01-18T00:38:25.491Z,100.00
2023-01-18T00:40:55.736Z,100.00
2023-01-18T00:43:41.665Z,100.00
2023-01-18T00:46:11.776Z,100.00
2023-01-18T00:48:41.241Z,100.00
2023-01-18T00:51:10.566Z,100.00
2023-01-18T00:53:40.230Z,100.00
2023-01-18T00:56:13.579Z,100.00
2023-01-18T00:58:41.921Z,100.00
2023-01-18T01:01:11.658Z,100.00
2023-01-18T01:04:04.150Z,100.00
2023-01-18T01:06:47.514Z,100.00
2023-01-18T01:09:19.053Z,100.00
2023-01-18T01:12:08.504Z,100.00
2023-01-18T01:14:57.375Z,100.00
2023-01-18T01:17:42.584Z,100.00
2023-01-18T01:20:29.374Z,100.00
2023-01-18T01:23:16.335Z,100.00
2023-01-18T01:26:01.495Z,100.00
2023-01-18T01:28:31.447Z,100.00
2023-01-18T01:31:00.981Z,100.00
2023-01-18T01:33:29.947Z,100.00
2023-01-18T01:35:59.392Z,100.00
2023-01-18T01:38:30.222Z,100.00
2023-01-18T01:41:01.015Z,100.00
2023-01-18T01:43:54.825Z,100.00
2023-01-18T01:46:33.630Z,100.00
2023-01-18T01:49:10.884Z,100.00
2023-01-18T01:51:43.939Z,100.00
2023-01-18T01:54:18.804Z,100.00
2023-01-18T01:56:49.656Z,100.00
2023-01-18T01:59:20.213Z,100.00
2023-01-18T02:01:49.966Z,100.00
2023-01-18T02:04:18.748Z,100.00
2023-01-18T02:06:47.085Z,100.00
2023-01-18T02:09:17.383Z,100.00
2023-01-18T02:11:45.939Z,100.00
2023-01-18T02:14:17.376Z,100.00
2023-01-18T02:17:02.199Z,100.00
2023-01-18T02:20:03.814Z,100.00
2023-01-18T02:22:52.568Z,100.00
2023-01-18T02:25:48.209Z,100.00
2023-01-18T02:28:19.523Z,100.00
2023-01-18T02:30:53.939Z,100.00
2023-01-18T02:33:35.278Z,100.00
2023-01-18T02:36:06.721Z,100.00
2023-01-18T02:38:41.155Z,100.00
2023-01-18T02:41:15.878Z,100.00
2023-01-18T02:44:13.317Z,100.00
2023-01-18T02:46:42.588Z,100.00
2023-01-18T02:49:13.079Z,100.00
2023-01-18T02:51:41.524Z,100.00
2023-01-18T02:54:12.064Z,100.00
2023-01-18T02:56:44.061Z,100.00
2023-01-18T02:59:19.539Z,100.00
2023-01-18T03:01:55.797Z,100.00
2023-01-18T03:04:30.608Z,100.00
2023-01-18T03:07:05.293Z,100.00
2023-01-18T03:09:34.364Z,100.00
2023-01-18T03:12:10.721Z,100.00
2023-01-18T03:14:51.275Z,100.00
2023-01-18T03:17:23.365Z,100.00
2023-01-18T03:20:09.021Z,100.00
2023-01-18T03:22:59.386Z,100.00
2023-01-18T03:25:32.087Z,100.00
2023-01-18T03:28:22.500Z,100.00
2023-01-18T03:31:11.401Z,100.00
2023-01-18T03:33:47.771Z,100.00
2023-01-18T03:36:23.553Z,100.00
2023-01-18T03:38:58.624Z,100.00
2023-01-18T03:41:30.601Z,100.00
2023-01-18T03:44:03.936Z,100.00
2023-01-18T03:46:35.814Z,100.00
2023-01-18T03:49:04.703Z,100.00
2023-01-18T03:51:47.576Z,100.00
2023-01-18T03:54:22.803Z,100.00
2023-01-18T03:56:56.286Z,100.00
2023-01-18T03:59:25.202Z,100.00
2023-01-18T04:01:55.058Z,100.00
2023-01-18T04:04:24.572Z,100.00
2023-01-18T04:06:52.947Z,100.00
2023-01-18T04:09:21.639Z,100.00
2023-01-18T04:11:50.067Z,100.00
2023-01-18T04:14:20.239Z,100.00
2023-01-18T04:16:48.939Z,100.00
2023-01-18T04:19:19.108Z,100.00
2023-01-18T04:21:48.031Z,100.00
2023-01-18T04:24:17.453Z,100.00
2023-01-18T04:26:45.682Z,100.00
2023-01-18T04:29:14.373Z,100.00
2023-01-18T04:31:42.818Z,100.00
2023-01-18T04:34:11.501Z,100.00
2023-01-18T04:36:41.360Z,100.00
2023-01-18T04:39:14.543Z,100.00
2023-01-18T04:41:43.174Z,100.00
2023-01-18T04:44:11.744Z,100.00
2023-01-18T04:46:40.307Z,100.00
2023-01-18T04:49:12.276Z,100.00
2023-01-18T04:51:42.242Z,100.00
2023-01-18T04:54:10.599Z,100.00
2023-01-18T04:56:39.739Z,100.00
2023-01-18T04:59:07.994Z,100.00
2023-01-18T05:01:36.888Z,100.00
2023-01-18T05:04:05.784Z,100.00
2023-01-18T05:06:33.901Z,100.00
2023-01-18T05:09:06.177Z,100.00
2023-01-18T05:11:34.624Z,100.00
2023-01-18T05:14:03.012Z,100.00
2023-01-18T05:16:31.895Z,100.00
2023-01-18T05:19:00.996Z,100.00
2023-01-18T05:21:29.595Z,100.00
2023-01-18T05:23:59.146Z,100.00
2023-01-18T05:26:31.380Z,100.00
2023-01-18T05:29:00.373Z,100.00
2023-01-18T05:31:28.734Z,100.00
2023-01-18T05:33:57.931Z,100.00
2023-01-18T05:36:26.553Z,100.00
2023-01-18T05:38:55.528Z,100.00
2023-01-18T05:41:25.163Z,100.00
2023-01-18T05:43:56.753Z,100.00
2023-01-18T05:46:25.811Z,100.00
2023-01-18T05:48:57.832Z,100.00
2023-01-18T05:51:26.129Z,100.00
2023-01-18T05:53:54.341Z,100.00
2023-01-18T05:56:22.752Z,100.00
2023-01-18T05:58:53.200Z,100.00
2023-01-18T06:01:23.708Z,100.00
2023-01-18T06:03:52.431Z,100.00
2023-01-18T06:06:21.151Z,100.00
2023-01-18T06:08:50.035Z,100.00
2023-01-18T06:11:18.303Z,100.00
2023-01-18T06:13:46.792Z,100.00
2023-01-18T06:16:15.078Z,100.00
2023-01-18T06:18:45.310Z,100.00
2023-01-18T06:21:13.570Z,100.00
2023-01-18T06:23:43.017Z,100.00
2023-01-18T06:26:14.488Z,100.00
2023-01-18T06:28:42.596Z,100.00
2023-01-18T06:31:11.707Z,100.00
2023-01-18T06:33:40.104Z,100.00
2023-01-18T06:36:10.948Z,100.00
2023-01-18T06:38:40.291Z,100.00
2023-01-18T06:41:09.421Z,100.00
2023-01-18T06:43:37.841Z,100.00
2023-01-18T06:46:08.397Z,100.00
2023-01-18T06:48:36.728Z,100.00
2023-01-18T06:51:05.930Z,100.00
2023-01-18T06:53:37.904Z,100.00
2023-01-18T06:56:10.442Z,100.00
2023-01-18T06:58:39.052Z,100.00
2023-01-18T07:01:08.305Z,100.00
2023-01-18T07:03:36.669Z,100.00
2023-01-18T07:06:07.651Z,100.00
2023-01-18T07:08:37.889Z,100.00
2023-01-18T07:11:07.431Z,100.00
2023-01-18T07:13:36.451Z,100.00
2023-01-18T07:16:04.974Z,100.00
2023-01-18T07:18:33.739Z,100.00
2023-01-18T07:21:03.737Z,100.00
2023-01-18T07:23:32.198Z,100.00
2023-01-18T07:26:06.317Z,100.00
2023-01-18T07:28:37.832Z,100.00
2023-01-18T07:31:08.649Z,100.00
2023-01-18T07:33:37.384Z,100.00
2023-01-18T07:36:07.643Z,100.00
2023-01-18T07:38:36.738Z,100.00
2023-01-18T07:41:10.016Z,100.00
2023-01-18T07:43:44.350Z,100.00
2023-01-18T07:46:19.127Z,100.00
2023-01-18T07:48:50.848Z,100.00
2023-01-18T07:51:20.370Z,100.00
2023-01-18T07:53:48.750Z,100.00
2023-01-18T07:56:20.049Z,100.00
2023-01-18T07:58:48.370Z,100.00
2023-01-18T08:01:18.754Z,100.00
2023-01-18T08:03:48.614Z,100.00
2023-01-18T08:06:20.934Z,100.00
2023-01-18T08:08:49.080Z,100.00
2023-01-18T08:11:19.690Z,100.00
2023-01-18T08:13:49.486Z,100.00
2023-01-18T08:16:18.678Z,100.00
2023-01-18T08:18:50.027Z,100.00
2023-01-18T08:21:19.641Z,100.00
2023-01-18T08:23:48.138Z,100.00
2023-01-18T08:26:16.817Z,100.00
2023-01-18T08:28:46.739Z,100.00
2023-01-18T08:31:21.262Z,100.00
2023-01-18T08:33:51.282Z,100.00
2023-01-18T08:36:23.274Z,100.00
2023-01-18T08:38:53.289Z,100.00
2023-01-18T08:41:22.315Z,100.00
2023-01-18T08:43:52.603Z,100.00
2023-01-18T08:46:21.069Z,100.00
2023-01-18T08:48:52.298Z,100.00
2023-01-18T08:51:23.758Z,100.00
2023-01-18T08:53:54.454Z,100.00
2023-01-18T08:56:22.841Z,100.00
2023-01-18T08:58:53.330Z,100.00
2023-01-18T09:01:24.015Z,100.00
2023-01-18T09:03:55.935Z,100.00
2023-01-18T09:06:24.455Z,100.00
2023-01-18T09:08:55.327Z,100.00
2023-01-18T09:11:25.633Z,100.00
2023-01-18T09:14:01.432Z,100.00
2023-01-18T09:16:31.883Z,100.00
2023-01-18T09:19:01.842Z,100.00
2023-01-18T09:21:31.499Z,100.00
2023-01-18T09:24:00.467Z,100.00
2023-01-18T09:26:30.731Z,100.00
2023-01-18T09:29:00.963Z,100.00
2023-01-18T09:31:30.958Z,100.00
2023-01-18T09:34:18.113Z,100.00
2023-01-18T09:36:47.941Z,100.00
2023-01-18T09:39:16.210Z,100.00
2023-01-18T09:41:47.147Z,100.00
2023-01-18T09:44:23.325Z,100.00
2023-01-18T09:46:55.315Z,100.00
2023-01-18T09:49:31.339Z,100.00
2023-01-18T09:52:10.330Z,100.00
2023-01-18T09:54:44.137Z,100.00
2023-01-18T09:57:22.009Z,100.00
2023-01-18T09:59:56.755Z,100.00
2023-01-18T10:02:31.026Z,100.00
2023-01-18T10:05:03.927Z,100.00
2023-01-18T10:07:36.093Z,100.00
2023-01-18T10:10:06.617Z,100.00
2023-01-18T10:12:41.370Z,100.00
2023-01-18T10:15:20.361Z,100.00
2023-01-18T10:17:51.186Z,100.00
2023-01-18T10:20:26.347Z,100.00
2023-01-18T10:23:01.891Z,100.00
2023-01-18T10:25:34.228Z,100.00
2023-01-18T10:28:26.739Z,100.00
2023-01-18T10:31:04.142Z,100.00
2023-01-18T10:33:38.329Z,100.00
2023-01-18T10:36:19.091Z,100.00
2023-01-18T10:38:48.734Z,100.00
2023-01-18T10:41:22.287Z,100.00
2023-01-18T10:43:50.613Z,100.00
2023-01-18T10:46:21.152Z,100.00
2023-01-18T10:48:50.816Z,100.00
2023-01-18T10:51:32.360Z,100.00
2023-01-18T10:54:00.643Z,100.00
2023-01-18T10:56:30.388Z,100.00
2023-01-18T10:59:00.405Z,100.00
2023-01-18T11:01:34.789Z,100.00
2023-01-18T11:04:10.786Z,100.00
2023-01-18T11:06:47.388Z,100.00
2023-01-18T11:09:42.147Z,100.00
2023-01-18T11:12:37.617Z,100.00
2023-01-18T11:15:25.278Z,100.00
2023-01-18T11:18:13.335Z,100.00
2023-01-18T11:20:49.193Z,100.00
2023-01-18T11:23:22.108Z,100.00
2023-01-18T11:25:58.392Z,100.00
2023-01-18T11:28:37.669Z,100.00
2023-01-18T11:31:13.283Z,100.00
2023-01-18T11:33:52.513Z,100.00
2023-01-18T11:36:22.084Z,100.00
2023-01-18T11:38:50.230Z,100.00
2023-01-18T11:41:23.545Z,100.00
2023-01-18T11:44:05.490Z,100.00
2023-01-18T11:46:44.327Z,100.00
2023-01-18T11:49:33.009Z,100.00
2023-01-18T11:52:03.548Z,100.00
2023-01-18T11:54:39.018Z,100.00
2023-01-18T11:57:10.408Z,100.00
2023-01-18T11:59:42.194Z,100.00
2023-01-18T12:02:56.548Z,100.00
2023-01-18T12:05:55.258Z,100.00
2023-01-18T12:08:56.213Z,100.00
2023-01-18T12:11:40.225Z,100.00
2023-01-18T12:14:20.809Z,100.00
2023-01-18T12:17:09.913Z,100.00
2023-01-18T12:20:08.863Z,100.00
2023-01-18T12:23:13.607Z,100.00
2023-01-18T12:26:11.027Z,100.00
2023-01-18T12:28:57.388Z,100.00
2023-01-18T12:31:42.352Z,100.00
2023-01-18T12:34:18.156Z,100.00
2023-01-18T12:37:04.508Z,100.00
2023-01-18T12:39:54.588Z,100.00
2023-01-18T12:42:33.142Z,97.90
2023-01-18T12:45:12.373Z,96.65
2023-01-18T12:47:48.083Z,96.58
2023-01-18T12:50:24.292Z,99.48
2023-01-18T12:52:56.570Z,98.84
2023-01-18T12:55:31.825Z,99.32
2023-01-18T12:58:02.938Z,99.20
2023-01-18T13:00:38.961Z,99.77
2023-01-18T13:03:14.509Z,100.00
2023-01-18T13:05:52.669Z,100.00
2023-01-18T13:08:29.314Z,100.00
2023-01-18T13:11:11.080Z,100.00
2023-01-18T13:13:45.697Z,100.00
2023-01-18T13:16:24.005Z,100.00
2023-01-18T13:19:00.149Z,100.00
2023-01-18T13:21:44.585Z,100.00
2023-01-18T13:24:24.217Z,100.00
2023-01-18T13:26:56.786Z,100.00
2023-01-18T13:29:34.318Z,95.30
2023-01-18T13:32:02.748Z,95.09
2023-01-18T13:34:37.008Z,94.86
2023-01-18T13:37:45.619Z,91.93
2023-01-18T13:40:27.202Z,88.59
2023-01-18T13:42:56.943Z,85.48
2023-01-18T13:45:27.543Z,82.27
2023-01-18T13:48:00.866Z,84.90
2023-01-18T13:50:47.455Z,80.25
2023-01-18T13:53:31.775Z,78.08
2023-01-18T13:56:34.233Z,77.95
2023-01-18T13:59:07.643Z,77.77
2023-01-18T14:01:40.738Z,76.12
2023-01-18T14:04:25.454Z,76.10
2023-01-18T14:06:56.816Z,75.49
2023-01-18T14:09:42.672Z,74.55
2023-01-18T14:12:12.016Z,77.54
2023-01-18T14:14:57.524Z,78.17
2023-01-18T14:17:26.253Z,78.21
2023-01-18T14:20:11.049Z,77.34
2023-01-18T14:22:56.951Z,78.11
2023-01-18T14:25:52.336Z,78.99
2023-01-18T14:28:26.624Z,75.81
2023-01-18T14:31:00.467Z,75.55
2023-01-18T14:33:32.904Z,76.02
2023-01-18T14:36:02.293Z,76.43
2023-01-18T14:38:32.151Z,79.59
2023-01-18T14:41:07.542Z,79.89
2023-01-18T14:43:38.636Z,81.50
2023-01-18T14:46:14.095Z,82.98
2023-01-18T14:48:51.635Z,83.02
2023-01-18T14:51:23.813Z,82.63
2023-01-18T14:53:54.950Z,81.51
2023-01-18T14:56:25.350Z,85.32
2023-01-18T14:58:56.162Z,89.74
2023-01-18T15:01:31.897Z,93.31
2023-01-18T15:04:03.974Z,96.00
2023-01-18T15:06:38.881Z,97.84
2023-01-18T15:09:09.546Z,98.65
2023-01-18T15:11:40.228Z,100.00
2023-01-18T15:14:13.680Z,100.00
2023-01-18T15:16:44.118Z,100.00
2023-01-18T15:19:19.306Z,100.00
2023-01-18T15:21:48.935Z,100.00
2023-01-18T15:24:20.352Z,100.00
2023-01-18T15:26:53.370Z,100.00
2023-01-18T15:29:26.390Z,100.00
2023-01-18T15:31:58.363Z,100.00
2023-01-18T15:34:31.499Z,100.00
2023-01-18T15:37:03.375Z,100.00
2023-01-18T15:39:33.450Z,100.00
2023-01-18T15:42:06.744Z,100.00
2023-01-18T15:44:43.246Z,100.00
2023-01-18T15:47:25.173Z,100.00
2023-01-18T15:49:56.899Z,100.00
2023-01-18T15:52:43.206Z,100.00
2023-01-18T15:55:23.408Z,100.00
2023-01-18T15:57:59.339Z,100.00
2023-01-18T16:00:32.005Z,100.00
2023-01-18T16:03:04.575Z,100.00
2023-01-18T16:05:33.769Z,100.00
2023-01-18T16:08:19.390Z,100.00
2023-01-18T16:10:54.677Z,100.00
2023-01-18T16:13:38.023Z,100.00
2023-01-18T16:16:27.877Z,100.00
2023-01-18T16:19:09.639Z,100.00
2023-01-18T16:21:44.988Z,100.00
2023-01-18T16:24:20.990Z,100.00
2023-01-18T16:26:49.983Z,100.00
2023-01-18T16:29:18.380Z,100.00
2023-01-18T16:31:48.473Z,100.00
2023-01-18T16:34:25.485Z,100.00
2023-01-18T16:36:54.935Z,100.00
2023-01-18T16:39:24.705Z,100.00
2023-01-18T16:41:57.240Z,100.00
2023-01-18T16:44:26.429Z,100.00
2023-01-18T16:46:54.809Z,100.00
2023-01-18T16:49:24.651Z,100.00
2023-01-18T16:51:53.109Z,100.00
2023-01-18T16:54:22.432Z,100.00
2023-01-18T16:56:51.145Z,100.00
2023-01-18T16:59:21.972Z,100.00
2023-01-18T17:01:50.550Z,100.00
2023-01-18T17:04:26.955Z,100.00
2023-01-18T17:06:55.335Z,100.00
2023-01-18T17:09:28.066Z,100.00
2023-01-18T17:12:01.660Z,100.00
2023-01-18T17:14:30.015Z,100.00
2023-01-18T17:16:59.946Z,100.00
2023-01-18T17:19:30.729Z,100.00
2023-01-18T17:21:59.913Z,100.00
2023-01-18T17:24:29.119Z,100.00
2023-01-18T17:26:58.766Z,100.00
2023-01-18T17:29:28.273Z,100.00
2023-01-18T17:31:58.352Z,100.00
2023-01-18T17:34:30.043Z,100.00
2023-01-18T17:37:03.403Z,100.00
2023-01-18T17:39:43.884Z,100.00
2023-01-18T17:42:29.765Z,100.00
2023-01-18T17:45:04.381Z,100.00
2023-01-18T17:47:34.224Z,100.00
2023-01-18T17:50:09.133Z,100.00
2023-01-18T17:52:40.761Z,100.00
2023-01-18T17:55:17.902Z,100.00
2023-01-18T17:57:48.154Z,100.00
2023-01-18T18:00:25.014Z,100.00
2023-01-18T18:02:57.533Z,100.00
2023-01-18T18:05:26.649Z,100.00
2023-01-18T18:07:56.938Z,100.00
2023-01-18T18:10:26.344Z,100.00
2023-01-18T18:12:55.015Z,100.00
2023-01-18T18:15:23.659Z,100.00
2023-01-18T18:17:52.040Z,100.00
2023-01-18T18:20:22.989Z,100.00
2023-01-18T18:22:52.781Z,100.00
2023-01-18T18:25:23.103Z,100.00
2023-01-18T18:27:51.465Z,100.00
2023-01-18T18:30:19.950Z,100.00
2023-01-18T18:32:48.526Z,100.00
2023-01-18T18:35:25.614Z,100.00
2023-01-18T18:37:57.269Z,100.00
2023-01-18T18:40:27.673Z,100.00
2023-01-18T18:43:02.462Z,100.00
2023-01-18T18:45:31.777Z,100.00
2023-01-18T18:48:00.871Z,100.00
2023-01-18T18:50:30.030Z,100.00
2023-01-18T18:52:59.869Z,100.00
2023-01-18T18:55:29.882Z,100.00
2023-01-18T18:57:59.451Z,100.00
2023-01-18T19:00:28.383Z,100.00
2023-01-18T19:03:00.634Z,100.00
2023-01-18T19:05:29.407Z,100.00
2023-01-18T19:07:58.160Z,100.00
2023-01-18T19:10:27.819Z,100.00
2023-01-18T19:13:02.335Z,100.00
2023-01-18T19:15:31.223Z,100.00
2023-01-18T19:17:59.666Z,100.00
2023-01-18T19:20:28.093Z,100.00
2023-01-18T19:22:58.601Z,100.00
2023-01-18T19:25:27.260Z,100.00
2023-01-18T19:27:56.037Z,100.00
2023-01-18T19:30:26.273Z,100.00
2023-01-18T19:32:56.444Z,100.00
2023-01-18T19:35:26.240Z,100.00
2023-01-18T19:37:55.205Z,100.00
2023-01-18T19:40:25.865Z,100.00
2023-01-18T19:42:56.209Z,100.00
2023-01-18T19:45:28.626Z,100.00
2023-01-18T19:47:58.055Z,100.00
2023-01-18T19:50:27.690Z,100.00
2023-01-18T19:52:57.017Z,100.00
2023-01-18T19:55:25.555Z,100.00
2023-01-18T19:57:57.165Z,100.00
2023-01-18T20:00:27.016Z,100.00
2023-01-18T20:02:55.623Z,100.00
2023-01-18T20:05:24.464Z,100.00
2023-01-18T20:07:52.847Z,100.00
2023-01-18T20:10:21.498Z,100.00
2023-01-18T20:12:51.131Z,100.00
2023-01-18T20:15:21.478Z,100.00
2023-01-18T20:17:54.047Z,100.00
2023-01-18T20:20:31.760Z,100.00
2023-01-18T20:23:01.168Z,100.00
2023-01-18T20:25:29.584Z,100.00
2023-01-18T20:27:57.737Z,100.00
2023-01-18T20:30:25.996Z,100.00
2023-01-18T20:32:55.976Z,100.00
2023-01-18T20:35:27.633Z,100.00
2023-01-18T20:37:56.443Z,100.00
2023-01-18T20:40:25.361Z,100.00
2023-01-18T20:42:53.676Z,100.00
2023-01-18T20:45:22.067Z,100.00
2023-01-18T20:47:50.314Z,100.00
2023-01-18T20:50:23.521Z,100.00
2023-01-18T20:52:52.804Z,100.00
2023-01-18T20:55:22.686Z,100.00
2023-01-18T20:57:53.099Z,100.00
2023-01-18T21:00:22.420Z,100.00
2023-01-18T21:02:52.711Z,100.00
2023-01-18T21:05:25.985Z,100.00
2023-01-18T21:07:54.567Z,100.00
2023-01-18T21:10:38.554Z,100.00
2023-01-18T21:13:07.568Z,100.00
2023-01-18T21:15:36.016Z,100.00
2023-01-18T21:18:06.736Z,100.00
2023-01-18T21:20:36.774Z,100.00
2023-01-18T21:23:05.502Z,100.00
2023-01-18T21:25:36.433Z,100.00
2023-01-18T21:28:06.549Z,100.00
2023-01-18T21:30:36.803Z,100.00
2023-01-18T21:33:05.256Z,100.00
2023-01-18T21:35:33.620Z,100.00
2023-01-18T21:38:04.989Z,100.00
2023-01-18T21:40:33.693Z,100.00
2023-01-18T21:43:18.937Z,100.00
2023-01-18T21:45:56.579Z,100.00
2023-01-18T21:48:25.346Z,100.00
2023-01-18T21:51:12.653Z,100.00
2023-01-18T21:54:01.639Z,100.00
2023-01-18T21:56:32.863Z,100.00
2023-01-18T21:59:02.901Z,100.00
2023-01-18T22:01:34.379Z,100.00
2023-01-18T22:04:23.760Z,100.00
2023-01-18T22:06:53.747Z,100.00
2023-01-18T22:09:25.918Z,100.00
2023-01-18T22:11:56.138Z,100.00
2023-01-18T22:14:35.450Z,100.00
2023-01-18T22:17:03.882Z,100.00
2023-01-18T22:19:32.935Z,100.00
2023-01-18T22:22:02.205Z,100.00
2023-01-18T22:24:36.208Z,100.00
2023-01-18T22:27:05.071Z,100.00
2023-01-18T22:29:34.215Z,100.00
2023-01-18T22:32:02.435Z,100.00
2023-01-18T22:34:30.769Z,100.00
2023-01-18T22:37:00.288Z,100.00
2023-01-18T22:39:28.912Z,100.00
2023-01-18T22:42:03.049Z,100.00
2023-01-18T22:44:32.972Z,100.00
2023-01-18T22:47:04.223Z,100.00
2023-01-18T22:49:32.748Z,100.00
2023-01-18T22:52:04.469Z,100.00
2023-01-18T22:54:34.287Z,100.00
2023-01-18T22:57:04.379Z,100.00
2023-01-18T22:59:32.726Z,100.00
2023-01-18T23:02:01.243Z,100.00
2023-01-18T23:04:29.642Z,100.00
2023-01-18T23:07:01.041Z,100.00
2023-01-18T23:09:29.843Z,100.00
2023-01-18T23:11:59.134Z,100.00
2023-01-18T23:14:46.526Z,100.00
2023-01-18T23:17:31.725Z,100.00
2023-01-18T23:20:02.294Z,100.00
2023-01-18T23:22:31.370Z,100.00
2023-01-18T23:24:59.508Z,100.00
2023-01-18T23:27:28.042Z,100.00
2023-01-18T23:29:59.011Z,100.00
2023-01-18T23:32:30.725Z,100.00
2023-01-18T23:34:59.468Z,100.00
2023-01-18T23:37:29.189Z,100.00
2023-01-18T23:40:16.776Z,100.00
2023-01-18T23:43:03.681Z,100.00
2023-01-18T23:45:50.846Z,100.00
2023-01-18T23:48:37.804Z,100.00
2023-01-18T23:51:27.689Z,100.00
2023-01-18T23:54:16.139Z,100.00
2023-01-18T23:56:45.083Z,100.00
2023-01-18T23:59:14.147Z,100.00
